Time;durP1;ratioP1;P1;durP2;ratioP2;P2;SDS_P1;SDS_P2;PMS_P1;PMS_P2;Temp;Humidity;BMP_temperature;BMP_pressure;BME280_temperature;BME280_humidity;BME280_pressure;Samples;Min_cycle;Max_cycle;Signal;HPM_P1;HPM_P2
2024/02/04 00:00:44;;;;;;;0.38;0.20;;;;;;;7.87;100.00;99923.91;5064891;28;20029;-80
2024/02/04 00:03:11;;;;;;;0.30;0.25;;;;;;;7.82;100.00;99899.28;5066098;28;20100;-80
2024/02/04 00:05:36;;;;;;;0.15;0.10;;;;;;;7.97;100.00;99921.13;5061238;28;20044;-78
2024/02/04 00:08:02;;;;;;;0.77;0.22;;;;;;;7.76;100.00;99886.47;5058482;28;20120;-80
2024/02/04 00:10:27;;;;;;;0.45;0.13;;;;;;;7.99;100.00;99914.56;5071490;28;20032;-79
2024/02/04 00:12:53;;;;;;;1.77;0.30;;;;;;;7.82;100.00;99872.34;5072785;28;20041;-80
2024/02/04 00:15:19;;;;;;;0.20;0.10;;;;;;;8.06;100.00;99907.50;5062540;28;20105;-80
2024/02/04 00:17:44;;;;;;;0.30;0.20;;;;;;;7.84;100.00;99883.81;5038303;28;20033;-80
2024/02/04 00:20:10;;;;;;;0.10;0.10;;;;;;;7.96;100.00;99909.47;5060893;28;20092;-80
2024/02/04 00:22:35;;;;;;;0.77;0.20;;;;;;;7.92;100.00;99894.66;5061556;28;20029;-81
2024/02/04 00:25:04;;;;;;;0.20;0.10;;;;;;;7.97;100.00;99907.66;5059786;28;20016;-80
2024/02/04 00:27:33;;;;;;;1.27;0.20;;;;;;;7.99;100.00;99901.09;5062987;28;20091;-80
2024/02/04 00:29:59;;;;;;;0.25;0.10;;;;;;;8.00;100.00;99905.47;5062331;28;20074;-80
2024/02/04 00:32:25;;;;;;;0.38;0.20;;;;;;;8.00;100.00;99901.94;5064523;28;20395;-80
2024/02/04 00:34:51;;;;;;;0.17;0.10;;;;;;;7.90;100.00;99893.94;5055484;28;20048;-80
2024/02/04 00:37:16;;;;;;;0.32;0.10;;;;;;;7.77;100.00;99880.91;5057029;28;20020;-80
2024/02/04 00:39:42;;;;;;;0.30;0.20;;;;;;;7.75;100.00;99880.22;5060446;28;20035;-80
2024/02/04 00:42:07;;;;;;;0.40;0.20;;;;;;;8.04;100.00;99909.53;5053805;28;20024;-80
2024/02/04 00:44:32;;;;;;;0.10;0.00;;;;;;;7.79;100.00;99878.06;5059587;28;20031;-80
2024/02/04 00:46:58;;;;;;;0.85;0.10;;;;;;;7.89;100.00;99905.75;5054282;28;20025;-80
2024/02/04 00:49:23;;;;;;;1.65;0.20;;;;;;;7.87;100.00;99913.13;5063789;28;20027;-80
2024/02/04 00:51:48;;;;;;;0.57;0.20;;;;;;;7.91;100.00;99917.19;5054683;28;20025;-80
2024/02/04 00:54:13;;;;;;;0.43;0.20;;;;;;;7.92;100.00;99921.59;5058363;28;20033;-80
2024/02/04 00:56:39;;;;;;;0.47;0.20;;;;;;;7.87;100.00;99911.28;5056351;28;20036;-79
2024/02/04 00:59:04;;;;;;;0.20;0.05;;;;;;;7.92;100.00;99913.50;5057179;28;20029;-79
2024/02/04 01:01:29;;;;;;;0.20;0.17;;;;;;;7.89;100.00;99901.19;5058705;28;20028;-81
2024/02/04 01:03:55;;;;;;;0.13;0.10;;;;;;;7.83;100.00;99907.22;5057660;28;20048;-79
2024/02/04 01:06:20;;;;;;;0.47;0.20;;;;;;;7.75;100.00;99885.59;5058672;28;20081;-79
2024/02/04 01:08:45;;;;;;;0.00;0.00;;;;;;;7.70;100.00;99890.63;5052177;28;20039;-79
2024/02/04 01:11:11;;;;;;;0.30;0.10;;;;;;;7.73;100.00;99898.41;5051777;28;20025;-79
2024/02/04 01:13:36;;;;;;;0.40;0.20;;;;;;;7.90;100.00;99921.72;5056608;28;20132;-81
2024/02/04 01:16:01;;;;;;;0.17;0.10;;;;;;;7.79;100.00;99889.69;5052543;28;20028;-80
2024/02/04 01:18:26;;;;;;;0.73;0.10;;;;;;;7.99;100.00;99922.66;5055603;28;20028;-79
2024/02/04 01:20:52;;;;;;;0.15;0.10;;;;;;;7.71;100.00;99902.25;5060438;28;20020;-80
2024/02/04 01:23:18;;;;;;;0.10;0.10;;;;;;;7.91;100.00;99919.88;5059749;28;20036;-79
2024/02/04 01:25:43;;;;;;;0.40;0.10;;;;;;;7.71;100.00;99875.31;5050706;28;20021;-79
2024/02/04 01:28:09;;;;;;;0.25;0.10;;;;;;;7.82;100.00;99902.00;5054404;28;20025;-79
2024/02/04 01:30:35;;;;;;;0.57;0.10;;;;;;;7.87;100.00;99907.75;5059107;28;20024;-79
2024/02/04 01:33:00;;;;;;;0.32;0.10;;;;;;;7.82;100.00;99893.91;5066634;28;20021;-82
2024/02/04 01:35:26;;;;;;;0.10;0.10;;;;;;;7.64;100.00;99859.78;5060752;28;20024;-80
2024/02/04 01:37:51;;;;;;;0.20;0.10;;;;;;;7.76;100.00;99883.78;5054484;28;20090;-80
2024/02/04 01:40:16;;;;;;;0.50;0.17;;;;;;;7.66;100.00;99883.88;5054730;28;20029;-80
2024/02/04 01:42:41;;;;;;;0.17;0.10;;;;;;;7.84;100.00;99902.69;5053777;28;20075;-79
2024/02/04 01:45:07;;;;;;;0.22;0.20;;;;;;;7.83;100.00;99895.59;5050693;28;20025;-79
2024/02/04 01:47:33;;;;;;;0.65;0.20;;;;;;;7.78;100.00;99881.75;5060931;28;20024;-78
2024/02/04 01:49:59;;;;;;;1.08;0.25;;;;;;;7.82;100.00;99893.91;5054120;28;20154;-79
2024/02/04 01:52:24;;;;;;;2.25;0.13;;;;;;;7.71;100.00;99860.00;5057089;28;20040;-78
2024/02/04 01:54:50;;;;;;;1.42;0.50;;;;;;;7.86;100.00;99876.44;5062188;28;20025;-78
2024/02/04 01:57:16;;;;;;;0.35;0.15;;;;;;;7.95;100.00;99897.00;5050609;28;20013;-80
2024/02/04 01:59:42;;;;;;;0.20;0.10;;;;;;;7.87;100.00;99873.56;5059908;28;20037;-79
2024/02/04 02:02:08;;;;;;;0.10;0.10;;;;;;;7.95;100.00;99886.25;5052953;28;20028;-79
2024/02/04 02:04:33;;;;;;;0.30;0.20;;;;;;;7.79;100.00;99861.91;5062291;28;20032;-79
2024/02/04 02:07:00;;;;;;;0.28;0.10;;;;;;;7.92;100.00;99886.56;5055586;28;20092;-80
2024/02/04 02:09:26;;;;;;;0.38;0.20;;;;;;;7.78;100.00;99881.75;5056978;28;20029;-79
2024/02/04 02:12:07;;;;;;;0.20;0.15;;;;;;;7.78;100.00;99876.34;5050387;28;20026;-79
2024/02/04 02:14:37;;;;;;;0.50;0.20;;;;;;;7.90;100.00;99875.94;5058587;28;20097;-79
2024/02/04 02:17:07;;;;;;;0.20;0.13;;;;;;;7.65;100.00;99834.56;5054736;28;20034;-79
2024/02/04 02:19:47;;;;;;;0.38;0.10;;;;;;;7.74;100.00;99842.69;5054446;28;20032;-79
2024/02/04 02:22:32;;;;;;;0.10;0.10;;;;;;;7.78;100.00;99876.34;5050557;28;20063;-79
2024/02/04 02:24:58;;;;;;;0.52;0.10;;;;;;;7.83;100.00;99879.41;5055372;28;20025;-81
2024/02/04 02:27:24;;;;;;;0.52;0.10;;;;;;;7.57;100.00;99849.78;5058571;28;20017;-79
2024/02/04 02:29:49;;;;;;;0.32;0.30;;;;;;;7.79;100.00;99870.81;5060642;28;20338;-80
2024/02/04 02:32:15;;;;;;;3.88;0.20;;;;;;;7.61;100.00;99853.88;5060844;28;20344;-80
2024/02/04 02:34:41;;;;;;;0.60;0.20;;;;;;;7.48;100.00;99835.44;5054638;28;20190;-79
2024/02/04 02:37:26;;;;;;;0.20;0.15;;;;;;;7.72;100.00;99863.53;5058520;28;20023;-79
2024/02/04 02:40:16;;;;;;;0.43;0.20;;;;;;;7.83;100.00;99861.44;5053502;28;20021;-78
2024/02/04 02:42:45;;;;;;;0.93;0.20;;;;;;;7.82;100.00;99873.19;5055561;28;20025;-79
2024/02/04 02:45:12;;;;;;;0.45;0.17;;;;;;;7.64;100.00;99854.38;5062441;28;20020;-79
2024/02/04 02:47:39;;;;;;;0.68;0.22;;;;;;;7.71;100.00;99859.16;5057515;28;20391;-80
2024/02/04 02:50:05;;;;;;;0.73;0.22;;;;;;;7.71;100.00;99860.00;5056411;28;20025;-79
2024/02/04 02:52:31;;;;;;;0.88;0.10;;;;;;;7.70;100.00;99866.38;5054772;28;20048;-79
2024/02/04 02:54:56;;;;;;;0.17;0.17;;;;;;;7.79;100.00;99876.22;5053473;28;20031;-80
2024/02/04 02:57:21;;;;;;;1.55;0.10;;;;;;;7.68;100.00;99854.94;5059680;28;20025;-80
2024/02/04 02:59:46;;;;;;;0.28;0.10;;;;;;;7.76;100.00;99851.44;5057893;28;20263;-80
2024/02/04 03:02:13;;;;;;;0.50;0.20;;;;;;;7.79;100.00;99868.13;5054273;28;20025;-80
2024/02/04 03:04:39;;;;;;;1.65;0.20;;;;;;;7.78;100.00;99852.97;5044466;28;20375;-81
2024/02/04 03:07:05;;;;;;;0.60;0.22;;;;;;;7.77;100.00;99847.75;5059375;28;20025;-79
2024/02/04 03:09:30;;;;;;;0.73;0.22;;;;;;;7.87;100.00;99846.63;5057328;28;20023;-80
2024/02/04 03:11:55;;;;;;;0.13;0.10;;;;;;;7.82;100.00;99848.09;5058837;28;20024;-80
2024/02/04 03:14:21;;;;;;;0.30;0.13;;;;;;;7.78;100.00;99852.09;5054123;28;20224;-80
2024/02/04 03:16:46;;;;;;;1.17;0.20;;;;;;;7.79;100.00;99845.75;5059936;28;20031;-80
2024/02/04 03:19:12;;;;;;;0.30;0.00;;;;;;;7.63;100.00;99836.56;5055680;28;20017;-81
2024/02/04 03:21:37;;;;;;;0.10;0.10;;;;;;;7.89;100.00;99855.38;5060376;28;20021;-80
2024/02/04 03:24:03;;;;;;;0.00;0.00;;;;;;;7.64;100.00;99832.84;5067168;28;20028;-80
2024/02/04 03:26:28;;;;;;;0.35;0.20;;;;;;;7.74;100.00;99848.06;5061223;28;20095;-80
2024/02/04 03:28:53;;;;;;;0.52;0.10;;;;;;;7.73;100.00;99849.91;5057781;28;20190;-80
2024/02/04 03:31:23;;;;;;;0.30;0.10;;;;;;;7.93;100.00;99866.69;5059632;28;20024;-79
2024/02/04 03:33:49;;;;;;;0.22;0.10;;;;;;;7.93;100.00;99858.59;5048464;28;20021;-80
2024/02/04 03:36:18;;;;;;;0.20;0.10;;;;;;;7.90;100.00;99857.06;5058526;28;20092;-80
2024/02/04 03:38:43;;;;;;;0.00;0.00;;;;;;;7.94;100.00;99852.22;5053988;28;20416;-80
2024/02/04 03:41:08;;;;;;;0.17;0.10;;;;;;;7.99;100.00;99865.19;5062636;28;20039;-80
2024/02/04 03:43:36;;;;;;;0.30;0.10;;;;;;;7.96;100.00;99847.50;5046723;28;20040;-79
2024/02/04 03:46:01;;;;;;;0.20;0.10;;;;;;;7.74;100.00;99831.91;5059378;28;20306;-80
2024/02/04 03:48:26;;;;;;;1.08;0.17;;;;;;;7.87;100.00;99854.69;5068475;28;20017;-82
2024/02/04 03:50:52;;;;;;;0.95;0.10;;;;;;;7.87;100.00;99848.47;5073740;28;20029;-80
2024/02/04 03:53:18;;;;;;;0.22;0.20;;;;;;;7.86;100.00;99857.56;5057724;28;20021;-79
2024/02/04 03:55:44;;;;;;;0.00;0.00;;;;;;;7.89;100.00;99843.78;5055188;28;20085;-80
2024/02/04 03:58:09;;;;;;;0.45;0.10;;;;;;;7.85;100.00;99853.16;5060775;28;20020;-79
2024/02/04 04:00:34;;;;;;;1.40;0.20;;;;;;;7.84;100.00;99840.72;5061595;28;20025;-77
2024/02/04 04:03:00;;;;;;;0.10;0.10;;;;;;;7.86;100.00;99853.03;5067672;28;20021;-78
2024/02/04 04:05:26;;;;;;;0.00;0.00;;;;;;;7.91;100.00;99857.91;5063226;28;20021;-78
2024/02/04 04:07:51;;;;;;;0.47;0.20;;;;;;;7.97;100.00;99859.97;5056978;28;20354;-78
2024/02/04 04:10:17;;;;;;;0.10;0.10;;;;;;;7.98;100.00;99856.25;5049481;28;20018;-78
2024/02/04 04:12:42;;;;;;;0.52;0.03;;;;;;;8.06;100.00;99869.78;5056450;28;20024;-78
2024/02/04 04:15:07;;;;;;;0.03;0.00;;;;;;;7.84;100.00;99835.31;5053863;28;20044;-78
2024/02/04 04:17:33;;;;;;;0.32;0.10;;;;;;;7.79;100.00;99841.19;5060434;28;20049;-78
2024/02/04 04:19:58;;;;;;;0.38;0.08;;;;;;;8.00;100.00;99881.22;5059174;28;20017;-78
2024/02/04 04:22:23;;;;;;;1.45;0.10;;;;;;;7.88;100.00;99855.53;5061618;28;20021;-77
2024/02/04 04:24:48;;;;;;;0.32;0.20;;;;;;;8.00;100.00;99859.66;5056651;28;20031;-78
2024/02/04 04:27:14;;;;;;;0.08;0.00;;;;;;;8.04;100.00;99866.44;5056145;28;20066;-78
2024/02/04 04:29:39;;;;;;;2.88;0.25;;;;;;;7.91;100.00;99844.44;5057616;28;20099;-78
2024/02/04 04:32:05;;;;;;;0.17;0.10;;;;;;;7.94;100.00;99860.31;5056352;28;20074;-78
2024/02/04 04:34:30;;;;;;;0.20;0.10;;;;;;;8.01;100.00;99855.09;5054901;28;20347;-78
2024/02/04 04:36:55;;;;;;;0.13;0.13;;;;;;;8.00;100.00;99859.66;5062657;28;20036;-79
2024/02/04 04:39:20;;;;;;;0.47;0.13;;;;;;;8.01;100.00;99865.88;5058717;28;21082;-79
2024/02/04 04:41:46;;;;;;;0.10;0.08;;;;;;;8.01;100.00;99839.78;5054768;28;20100;-79
2024/02/04 04:44:11;;;;;;;0.15;0.10;;;;;;;8.04;100.00;99871.81;5051726;28;20025;-79
2024/02/04 04:46:40;;;;;;;0.13;0.10;;;;;;;8.03;100.00;99856.63;5053790;28;20109;-79
2024/02/04 04:49:05;;;;;;;0.25;0.20;;;;;;;8.12;100.00;99879.94;5061420;28;20029;-79
2024/02/04 04:51:31;;;;;;;0.10;0.05;;;;;;;8.01;100.00;99866.72;5057569;28;20110;-79
2024/02/04 04:53:56;;;;;;;0.10;0.10;;;;;;;7.92;100.00;99840.75;5059147;28;20033;-79
2024/02/04 04:56:21;;;;;;;0.28;0.10;;;;;;;7.92;100.00;99848.84;5068366;28;20104;-81
2024/02/04 04:58:47;;;;;;;0.43;0.10;;;;;;;8.06;100.00;99864.38;5064045;28;20021;-80
2024/02/04 05:01:12;;;;;;;0.25;0.10;;;;;;;8.15;100.00;99870.69;5062288;28;20055;-79
2024/02/04 05:03:37;;;;;;;0.45;0.13;;;;;;;8.01;100.00;99847.84;5048301;28;20021;-79
2024/02/04 05:06:02;;;;;;;0.20;0.10;;;;;;;7.98;100.00;99850.03;5059507;28;20036;-79
2024/02/04 05:08:28;;;;;;;0.30;0.08;;;;;;;8.08;100.00;99845.38;5058584;28;20194;-80
2024/02/04 05:10:53;;;;;;;0.10;0.10;;;;;;;8.04;100.00;99850.25;5062537;28;20379;-80
2024/02/04 05:13:18;;;;;;;0.15;0.10;;;;;;;8.10;100.00;99843.38;5051573;28;20018;-79
2024/02/04 05:15:43;;;;;;;0.17;0.00;;;;;;;8.18;100.00;99859.56;5058124;28;20020;-79
2024/02/04 05:18:09;;;;;;;0.40;0.00;;;;;;;8.01;100.00;99839.78;5061294;28;20165;-81
2024/02/04 05:20:34;;;;;;;0.05;0.05;;;;;;;8.03;100.00;99836.94;5059363;28;20032;-80
2024/02/04 05:23:00;;;;;;;0.10;0.10;;;;;;;8.26;100.00;99858.75;5058657;28;20110;-79
2024/02/04 05:25:25;;;;;;;0.50;0.20;;;;;;;8.09;100.00;99838.97;5056383;28;20260;-79
2024/02/04 05:27:50;;;;;;;0.20;0.10;;;;;;;8.07;100.00;99828.38;5057664;28;20032;-81
2024/02/04 05:30:16;;;;;;;0.00;0.00;;;;;;;8.00;100.00;99827.31;5055574;28;20028;-80
2024/02/04 05:32:41;;;;;;;0.20;0.10;;;;;;;8.10;100.00;99849.59;5058974;28;20028;-79
2024/02/04 05:35:07;;;;;;;0.10;0.03;;;;;;;8.10;100.00;99837.97;5056535;28;20028;-79
2024/02/04 05:37:33;;;;;;;0.10;0.10;;;;;;;8.20;100.00;99864.78;5058226;28;20331;-79
2024/02/04 05:39:58;;;;;;;0.20;0.00;;;;;;;8.19;100.00;99849.63;5054774;28;20044;-79
2024/02/04 05:42:24;;;;;;;0.82;0.10;;;;;;;8.13;100.00;99846.56;5052940;28;20021;-81
2024/02/04 05:44:49;;;;;;;0.30;0.10;;;;;;;8.14;100.00;99844.72;5051216;28;20033;-78
2024/02/04 05:47:14;;;;;;;0.98;0.10;;;;;;;8.12;100.00;99836.81;5054460;28;20048;-80
2024/02/04 05:49:40;;;;;;;0.30;0.10;;;;;;;8.05;100.00;99833.06;5053083;28;20328;-79
2024/02/04 05:52:06;;;;;;;0.65;0.10;;;;;;;8.13;100.00;99840.34;5057886;28;20029;-79
2024/02/04 05:54:31;;;;;;;0.20;0.10;;;;;;;8.23;100.00;99859.09;5059432;28;20039;-79
2024/02/04 05:56:58;;;;;;;0.38;0.10;;;;;;;7.92;100.00;99813.81;5042663;28;20045;-79
2024/02/04 05:59:23;;;;;;;0.38;0.00;;;;;;;8.21;100.00;99851.16;5059782;28;20328;-79
2024/02/04 06:01:48;;;;;;;0.10;0.05;;;;;;;8.09;100.00;99826.31;5054397;28;20032;-80
2024/02/04 06:04:14;;;;;;;0.20;0.10;;;;;;;8.06;100.00;99820.44;5057418;28;20031;-79
2024/02/04 06:06:39;;;;;;;0.32;0.10;;;;;;;8.24;100.00;99837.34;5054317;28;20063;-79
2024/02/04 06:09:04;;;;;;;1.50;0.10;;;;;;;8.15;100.00;99818.59;5051827;28;20021;-79
2024/02/04 06:11:30;;;;;;;0.30;0.10;;;;;;;8.27;100.00;99855.88;5054441;28;20096;-79
2024/02/04 06:13:55;;;;;;;0.32;0.08;;;;;;;8.27;100.00;99842.41;5055729;28;20039;-79
2024/02/04 06:16:20;;;;;;;0.65;0.10;;;;;;;8.26;100.00;99842.59;5059007;28;20316;-80
2024/02/04 06:18:45;;;;;;;0.57;0.10;;;;;;;8.01;100.00;99793.97;5056405;28;20033;-79
2024/02/04 06:21:11;;;;;;;0.00;0.00;;;;;;;7.94;100.00;99808.25;5058813;28;20028;-79
2024/02/04 06:23:38;;;;;;;0.05;0.05;;;;;;;8.29;100.00;99847.66;5058697;28;20020;-78
2024/02/04 06:26:04;;;;;;;0.00;0.00;;;;;;;8.37;100.00;99842.28;5055766;28;20028;-80
2024/02/04 06:28:29;;;;;;;0.10;0.10;;;;;;;8.26;100.00;99834.50;5049888;28;20353;-78
2024/02/04 06:30:55;;;;;;;0.17;0.10;;;;;;;8.26;100.00;99842.59;5059560;28;20033;-78
2024/02/04 06:33:20;;;;;;;0.05;0.05;;;;;;;8.23;100.00;99811.41;5060651;28;20040;-78
2024/02/04 06:35:46;;;;;;;0.40;0.10;;;;;;;8.34;100.00;99843.44;5059222;28;20057;-79
2024/02/04 06:38:11;;;;;;;0.38;0.05;;;;;;;8.32;100.00;99833.84;5056252;28;20017;-79
2024/02/04 06:40:36;;;;;;;0.00;0.00;;;;;;;8.35;100.00;99858.59;5061077;28;20021;-80
2024/02/04 06:43:02;;;;;;;0.10;0.10;;;;;;;8.28;100.00;99835.19;5059374;28;20029;-79
2024/02/04 06:45:27;;;;;;;1.10;0.10;;;;;;;8.28;100.00;99833.34;5056284;28;20027;-84
2024/02/04 06:47:52;;;;;;;0.40;0.10;;;;;;;8.04;100.00;99812.53;5059577;28;20035;-82
2024/02/04 06:50:18;;;;;;;0.63;0.10;;;;;;;8.25;100.00;99862.44;5062718;28;20029;-79
2024/02/04 06:52:43;;;;;;;0.50;0.10;;;;;;;8.34;100.00;99872.28;5058046;28;20021;-79
2024/02/04 06:55:09;;;;;;;0.08;0.05;;;;;;;8.18;100.00;99818.31;5063344;28;20078;-83
2024/02/04 06:57:34;;;;;;;0.30;0.10;;;;;;;8.36;100.00;99843.31;5063579;28;20398;-77
2024/02/04 07:00:00;;;;;;;0.93;0.45;;;;;;;8.31;100.00;99841.09;5056966;28;20434;-78
2024/02/04 07:02:25;;;;;;;0.22;0.05;;;;;;;8.38;100.00;99840.41;5062089;28;20021;-79
2024/02/04 07:04:51;;;;;;;0.43;0.20;;;;;;;7.96;100.00;99785.50;5063758;28;20308;-80
2024/02/04 07:07:16;;;;;;;1.17;0.30;;;;;;;8.30;100.00;99816.97;5050786;28;20021;-80
2024/02/04 07:09:41;;;;;;;0.52;0.20;;;;;;;8.18;100.00;99797.56;5057806;28;20017;-80
2024/02/04 07:12:07;;;;;;;0.30;0.20;;;;;;;8.46;100.00;99819.78;5059658;28;20312;-81
2024/02/04 07:14:32;;;;;;;1.52;0.30;;;;;;;8.49;100.00;99826.69;5070618;28;20035;-81
2024/02/04 07:16:57;;;;;;;1.25;0.40;;;;;;;8.59;100.00;99838.16;5071367;28;20029;-81
2024/02/04 07:19:23;;;;;;;0.30;0.20;;;;;;;8.31;100.00;99799.81;5071272;28;20021;-80
2024/02/04 07:21:48;;;;;;;0.08;0.08;;;;;;;8.26;100.00;99772.50;5067415;28;20262;-79
2024/02/04 07:24:13;;;;;;;0.20;0.10;;;;;;;8.58;100.00;99824.84;5065732;28;20021;-79
2024/02/04 07:26:39;;;;;;;0.10;0.10;;;;;;;8.53;100.00;99815.38;5068755;28;20029;-80
2024/02/04 07:29:04;;;;;;;0.15;0.13;;;;;;;8.73;100.00;99825.88;5062797;28;20035;-81
2024/02/04 07:31:30;;;;;;;0.08;0.08;;;;;;;8.71;100.00;99842.22;5064060;28;20329;-81
2024/02/04 07:33:55;;;;;;;0.00;0.00;;;;;;;8.58;100.00;99824.84;5068087;28;20021;-80
2024/02/04 07:36:20;;;;;;;0.03;0.03;;;;;;;8.63;100.00;99839.53;5062391;28;20033;-81
2024/02/04 07:38:46;;;;;;;0.47;0.20;;;;;;;8.78;100.00;99847.81;5058332;28;20033;-72
2024/02/04 07:41:14;;;;;;;0.10;0.10;;;;;;;8.71;100.00;99858.41;5056024;28;20067;-71
2024/02/04 07:43:40;;;;;;;0.10;0.10;;;;;;;8.78;100.00;99850.53;5051943;28;20112;-71
2024/02/04 07:46:06;;;;;;;0.10;0.10;;;;;;;8.75;100.00;99858.91;5055730;28;20110;-71
2024/02/04 07:48:31;;;;;;;1.95;0.20;;;;;;;8.64;100.00;99845.75;5054602;28;20032;-72
2024/02/04 07:50:56;;;;;;;0.43;0.20;;;;;;;8.75;100.00;99842.72;5051521;28;20060;-72
2024/02/04 07:53:23;;;;;;;0.30;0.20;;;;;;;8.66;100.00;99824.84;5061756;28;20032;-78
2024/02/04 07:55:49;;;;;;;0.32;0.30;;;;;;;8.88;100.00;99828.75;5075513;28;20024;-78
2024/02/04 07:58:15;;;;;;;0.28;0.20;;;;;;;8.88;100.00;99824.22;5057579;28;20017;-78
2024/02/04 08:00:40;;;;;;;0.20;0.10;;;;;;;8.80;100.00;99823.34;5058851;28;20047;-77
2024/02/04 08:03:05;;;;;;;0.00;0.00;;;;;;;8.94;100.00;99825.41;5061324;28;20068;-78
2024/02/04 08:05:31;;;;;;;0.13;0.10;;;;;;;8.91;100.00;99837.38;5054529;28;20020;-78
2024/02/04 08:07:56;;;;;;;0.35;0.17;;;;;;;8.82;100.00;99818.63;5067159;28;20092;-80
2024/02/04 08:10:22;;;;;;;0.20;0.00;;;;;;;8.58;100.00;99797.88;5067160;28;20017;-80
2024/02/04 08:12:50;;;;;;;0.30;0.10;;;;;;;8.66;100.00;99827.56;5066082;28;20025;-79
2024/02/04 08:15:16;;;;;;;0.20;0.20;;;;;;;8.79;100.00;99841.41;5069010;28;20036;-80
2024/02/04 08:17:41;;;;;;;0.10;0.10;;;;;;;8.76;100.00;99828.25;5057350;28;20029;-80
2024/02/04 08:20:07;;;;;;;0.10;0.10;;;;;;;8.86;100.00;99834.34;5070384;28;20071;-78
2024/02/04 08:22:33;;;;;;;0.10;0.10;;;;;;;8.87;100.00;99827.91;5066998;28;20032;-79
2024/02/04 08:24:58;;;;;;;1.00;0.30;;;;;;;8.91;100.00;99840.06;5061221;28;20266;-78
2024/02/04 08:27:24;;;;;;;0.20;0.13;;;;;;;9.03;100.00;99845.13;5063104;28;20096;-80
2024/02/04 08:29:49;;;;;;;0.82;0.10;;;;;;;8.95;100.00;99841.41;5067599;28;20450;-77
2024/02/04 08:32:14;;;;;;;0.30;0.10;;;;;;;8.97;100.00;99834.00;5063400;28;20020;-77
2024/02/04 08:34:40;;;;;;;0.22;0.10;;;;;;;8.80;100.00;99836.84;5060480;28;20033;-77
2024/02/04 08:37:05;;;;;;;0.10;0.10;;;;;;;8.78;100.00;99837.03;5061183;28;20032;-78
2024/02/04 08:39:30;;;;;;;0.40;0.10;;;;;;;9.00;100.00;99839.06;5059150;28;20066;-76
2024/02/04 08:41:56;;;;;;;1.88;0.15;;;;;;;8.96;100.00;99829.63;5061338;28;20024;-79
2024/02/04 08:44:21;;;;;;;1.42;0.20;;;;;;;9.00;100.00;99830.13;5052521;28;20028;-77
2024/02/04 08:46:47;;;;;;;0.30;0.10;;;;;;;8.96;100.00;99848.53;5057838;28;20033;-77
2024/02/04 08:49:12;;;;;;;0.30;0.13;;;;;;;9.14;100.00;99855.59;5060618;28;20021;-79
2024/02/04 08:51:37;;;;;;;0.00;0.00;;;;;;;9.10;100.00;99840.75;5062678;28;20025;-79
2024/02/04 08:54:02;;;;;;;0.35;0.10;;;;;;;9.02;100.00;99816.47;5058432;28;20101;-78
2024/02/04 08:56:28;;;;;;;0.13;0.10;;;;;;;9.37;100.00;99848.50;5057920;28;20036;-78
2024/02/04 08:58:53;;;;;;;0.30;0.10;;;;;;;9.23;100.00;99859.16;5066254;28;20028;-84
2024/02/04 09:01:19;;;;;;;0.50;0.10;;;;;;;9.17;100.00;99841.78;5061370;28;20020;-83
2024/02/04 09:03:44;;;;;;;0.90;0.20;;;;;;;9.26;100.00;99851.56;5061677;28;20025;-81
2024/02/04 09:06:10;;;;;;;0.30;0.00;;;;;;;9.10;100.00;99829.97;5061896;28;20068;-78
2024/02/04 09:08:35;;;;;;;0.85;0.10;;;;;;;9.13;100.00;99833.16;5050718;28;20033;-78
2024/02/04 09:11:01;;;;;;;0.38;0.10;;;;;;;9.06;100.00;99834.00;5056259;28;20029;-78
2024/02/04 09:13:26;;;;;;;0.50;0.15;;;;;;;9.34;100.00;99859.66;5061497;28;20025;-86
2024/02/04 09:15:53;;;;;;;0.28;0.15;;;;;;;8.74;100.00;99805.97;5058955;28;20029;-87
2024/02/04 09:18:19;;;;;;;0.75;0.20;;;;;;;8.99;100.00;99867.06;5064134;28;20032;-78
2024/02/04 09:20:44;;;;;;;1.00;0.10;;;;;;;9.18;100.00;99856.97;5061108;28;20025;-79
2024/02/04 09:23:10;;;;;;;0.85;0.10;;;;;;;9.25;100.00;99855.28;5058384;28;20334;-78
2024/02/04 09:25:35;;;;;;;1.25;0.10;;;;;;;9.21;100.00;99849.34;5060556;28;20039;-83
2024/02/04 09:28:00;;;;;;;0.03;0.03;;;;;;;9.53;100.00;99855.75;5061906;28;20208;-79
2024/02/04 09:30:25;;;;;;;1.60;0.00;;;;;;;9.70;100.00;99863.84;5061897;28;20039;-79
2024/02/04 09:32:51;;;;;;;1.85;0.20;;;;;;;9.55;100.00;99840.22;5057551;28;20036;-80
2024/02/04 09:35:16;;;;;;;0.10;0.10;;;;;;;9.51;100.00;99838.88;5061397;28;20026;-84
2024/02/04 09:37:42;;;;;;;0.32;0.10;;;;;;;9.73;100.00;99855.41;5062423;28;20025;-79
2024/02/04 09:40:08;;;;;;;0.32;0.10;;;;;;;9.53;100.00;99827.91;5057317;28;20028;-79
2024/02/04 09:42:33;;;;;;;0.10;0.03;;;;;;;9.54;100.00;99805.28;5057445;28;20029;-80
2024/02/04 09:44:59;;;;;;;0.05;0.00;;;;;;;9.87;100.00;99839.28;5059053;28;20048;-79
2024/02/04 09:47:25;;;;;;;0.17;0.05;;;;;;;9.88;100.00;99837.47;5053857;28;20025;-79
2024/02/04 09:49:55;;;;;;;0.08;0.05;;;;;;;9.87;100.00;99823.06;5074336;28;20044;-79
2024/02/04 09:52:24;;;;;;;0.20;0.13;;;;;;;9.97;100.00;99809.38;5051785;28;20017;-79
2024/02/04 09:54:56;;;;;;;0.22;0.17;;;;;;;9.96;100.00;99796.88;5062922;28;20094;-79
2024/02/04 09:57:22;;;;;;;0.22;0.05;;;;;;;10.21;100.00;99796.75;5054404;28;20047;-78
2024/02/04 09:59:48;;;;;;;0.70;0.10;;;;;;;10.55;100.00;99780.19;5055601;28;20017;-77
2024/02/04 10:02:13;;;;;;;0.45;0.20;;;;;;;10.14;100.00;99788.53;5053393;28;20378;-74
2024/02/04 10:04:38;;;;;;;0.10;0.10;;;;;;;10.42;100.00;99801.59;5055427;28;20024;-75
2024/02/04 10:07:04;;;;;;;0.28;0.00;;;;;;;10.50;100.00;99813.19;5056137;28;20193;-77
2024/02/04 10:09:30;;;;;;;0.15;0.03;;;;;;;10.50;100.00;99805.06;5056730;28;20105;-78
2024/02/04 10:11:56;;;;;;;0.28;0.10;;;;;;;10.52;100.00;99796.78;5058084;28;20025;-77
2024/02/04 10:14:21;;;;;;;0.00;0.00;;;;;;;10.90;100.00;99805.00;5055125;28;20064;-78
2024/02/04 10:16:47;;;;;;;0.22;0.10;;;;;;;10.94;100.00;99792.78;5055076;28;20021;-76
2024/02/04 10:19:12;;;;;;;1.38;0.00;;;;;;;10.59;100.00;99789.66;5052145;28;20037;-77
2024/02/04 10:21:37;;;;;;;0.85;0.20;;;;;;;10.65;100.00;99826.81;5056805;28;20029;-77
2024/02/04 10:24:03;;;;;;;0.25;0.10;;;;;;;10.39;100.00;99815.47;5058180;28;20020;-80
2024/02/04 10:26:34;;;;;;;0.95;0.13;;;;;;;10.28;100.00;99793.19;5062712;28;20031;-77
2024/02/04 10:29:00;;;;;;;0.40;0.20;;;;;;;10.66;100.00;99824.94;5079055;28;20022;-77
2024/02/04 10:31:26;;;;;;;0.22;0.08;;;;;;;10.78;100.00;99825.38;5064495;28;20091;-77
2024/02/04 10:33:52;;;;;;;0.25;0.10;;;;;;;10.77;100.00;99796.63;5059667;28;20040;-77
2024/02/04 10:36:17;;;;;;;0.10;0.00;;;;;;;10.88;100.00;99809.75;5058314;28;20340;-77
2024/02/04 10:38:42;;;;;;;0.40;0.10;;;;;;;10.44;100.00;99792.28;5058360;28;20024;-77
2024/02/04 10:41:15;;;;;;;0.28;0.08;;;;;;;10.57;100.00;99810.63;5056840;28;20021;-78
2024/02/04 10:43:43;;;;;;;0.10;0.00;;;;;;;10.82;100.00;99792.38;5059777;28;20075;-78
2024/02/04 10:46:19;;;;;;;0.10;0.05;;;;;;;11.14;100.00;99820.22;5059227;28;20244;-77
2024/02/04 10:48:51;;;;;;;0.00;0.00;;;;;;;11.24;100.00;99811.81;5058735;28;20025;-77
2024/02/04 10:51:18;;;;;;;0.10;0.10;;;;;;;11.11;100.00;99793.50;5061328;28;20084;-77
2024/02/04 10:53:44;;;;;;;0.20;0.20;;;;;;;11.03;100.00;99789.00;5056105;28;20408;-77
2024/02/04 10:56:19;;;;;;;1.92;0.10;;;;;;;10.98;100.00;99794.09;5062548;28;20029;-77
2024/02/04 10:58:45;;;;;;;0.00;0.00;;;;;;;11.19;100.00;99793.41;5060812;28;20039;-77
2024/02/04 11:01:11;;;;;;;0.68;0.10;;;;;;;11.27;100.00;99782.50;5062542;28;20025;-77
2024/02/04 11:03:38;;;;;;;1.00;0.22;;;;;;;11.26;100.00;99774.56;5061980;28;20032;-77
2024/02/04 11:06:04;;;;;;;0.00;0.00;;;;;;;11.54;100.00;99783.75;5063114;28;20020;-76
2024/02/04 11:08:30;;;;;;;0.00;0.00;;;;;;;11.40;100.00;99785.44;5056044;28;20021;-77
2024/02/04 11:10:55;;;;;;;0.55;0.10;;;;;;;11.59;100.00;99781.31;5059473;28;20353;-77
2024/02/04 11:13:23;;;;;;;0.82;0.10;;;;;;;11.66;100.00;99773.31;5061502;28;20036;-78
2024/02/04 11:15:50;;;;;;;1.48;0.10;;;;;;;11.88;100.00;99779.69;5054815;28;20092;-77
2024/02/04 11:18:30;;;;;;;0.10;0.10;;;;;;;11.49;100.00;99741.97;5063043;28;20029;-77
2024/02/04 11:21:27;;;;;;;0.63;0.10;;;;;;;11.06;100.00;99780.50;5058268;28;20060;-77
2024/02/04 11:24:46;;;;;;;0.32;0.20;;;;;;;11.15;100.00;99786.66;5067213;28;20096;-77
2024/02/04 11:27:12;;;;;;;0.00;0.00;;;;;;;10.81;100.00;99757.34;5007119;28;20090;-78